Terminal Aerodrome Forecast
Issued by NWS

Home | Current Version | Previous Version | Text Only | Print | Product List | Glossary On
Versions: 1 2 3 4 5 6 7 8 9 10 11 12 13
605
FTUS42 TJSJ 250520
TAFIST
TAF
TIST 250520Z 2506/2606 07004KT P6SM SKC
     FM251400 13010KT P6SM FEW030 SCT050
     FM252300 07005KT P6SM FEW025=

USA.gov is the U.S. government's official web portal to all federal, state and local government web resources and services.